createdAt,value
2023-05-12T00:01:49.225Z,6.68
2023-05-12T00:04:16.785Z,6.65
2023-05-12T00:06:44.264Z,6.60
2023-05-12T00:09:11.810Z,6.68
2023-05-12T00:11:39.430Z,6.13
2023-05-12T00:14:07.180Z,6.57
2023-05-12T00:16:35.981Z,6.97
2023-05-12T00:19:03.595Z,7.18
2023-05-12T00:21:31.134Z,6.55
2023-05-12T00:23:58.652Z,6.90
2023-05-12T00:26:26.444Z,7.28
2023-05-12T00:28:54.130Z,7.55
2023-05-12T00:31:21.642Z,7.30
2023-05-12T00:33:49.375Z,6.75
2023-05-12T00:36:16.967Z,6.95
2023-05-12T00:38:44.546Z,6.47
2023-05-12T00:41:12.152Z,6.13
2023-05-12T00:43:39.692Z,6.70
2023-05-12T00:46:07.313Z,6.50
2023-05-12T00:48:34.969Z,6.90
2023-05-12T00:51:03.897Z,6.10
2023-05-12T00:53:45.045Z,6.63
2023-05-12T00:56:17.800Z,6.10
2023-05-12T00:58:45.575Z,6.32
2023-05-12T01:01:14.350Z,6.15
2023-05-12T01:03:42.228Z,6.82
2023-05-12T01:06:32.748Z,6.75
2023-05-12T01:09:00.436Z,8.00
2023-05-12T01:11:28.032Z,7.20
2023-05-12T01:13:55.637Z,7.90
2023-05-12T01:16:24.919Z,8.93
2023-05-12T01:18:55.164Z,9.48
2023-05-12T01:21:23.588Z,8.50
2023-05-12T01:23:58.795Z,9.23
2023-05-12T01:26:29.897Z,10.02
2023-05-12T01:28:58.572Z,9.88
2023-05-12T01:31:28.025Z,9.77
2023-05-12T01:33:55.902Z,10.00
2023-05-12T01:36:24.441Z,10.45
2023-05-12T01:38:52.281Z,12.50
2023-05-12T01:41:19.854Z,14.40
2023-05-12T01:43:47.443Z,14.75
2023-05-12T01:46:16.284Z,14.57
2023-05-12T01:48:44.488Z,14.77
2023-05-12T01:51:11.994Z,14.68
2023-05-12T01:53:39.662Z,14.20
2023-05-12T01:56:07.604Z,14.25
2023-05-12T01:58:36.334Z,13.13
2023-05-12T02:01:04.474Z,14.20
2023-05-12T02:03:32.034Z,15.63
2023-05-12T02:05:59.676Z,14.43
2023-05-12T02:08:27.210Z,14.98
2023-05-12T02:11:07.524Z,14.65
2023-05-12T02:13:35.462Z,13.52
2023-05-12T02:16:03.981Z,14.20
2023-05-12T02:18:32.012Z,14.65
2023-05-12T02:21:00.296Z,14.77
2023-05-12T02:23:32.988Z,14.93
2023-05-12T02:26:01.443Z,13.98
2023-05-12T02:28:28.992Z,14.57
2023-05-12T02:30:56.891Z,13.93
2023-05-12T02:33:25.328Z,15.02
2023-05-12T02:35:52.917Z,14.82
2023-05-12T02:38:20.641Z,14.25
2023-05-12T02:40:48.202Z,12.90
2023-05-12T02:43:16.585Z,11.93
2023-05-12T02:45:44.267Z,11.68
2023-05-12T02:48:11.980Z,10.45
2023-05-12T02:50:39.594Z,9.45
2023-05-12T02:53:07.162Z,10.07
2023-05-12T02:55:34.800Z,9.27
2023-05-12T02:58:02.368Z,8.73
2023-05-12T03:00:29.939Z,8.63
2023-05-12T03:02:57.586Z,7.93
2023-05-12T03:05:25.198Z,7.30
2023-05-12T03:07:53.039Z,8.10
2023-05-12T03:10:20.896Z,7.85
2023-05-12T03:12:48.630Z,7.82
2023-05-12T03:15:16.354Z,8.25
2023-05-12T03:17:43.908Z,8.82
2023-05-12T03:20:12.190Z,8.25
2023-05-12T03:22:39.819Z,8.38
2023-05-12T03:25:08.300Z,8.50
2023-05-12T03:27:36.023Z,7.38
2023-05-12T03:30:05.207Z,8.07
2023-05-12T03:32:36.176Z,8.25
2023-05-12T03:35:03.910Z,7.75
2023-05-12T03:37:31.414Z,7.75
2023-05-12T03:39:58.979Z,7.53
2023-05-12T03:42:26.693Z,7.05
2023-05-12T03:44:54.208Z,6.65
2023-05-12T03:47:22.251Z,6.57
2023-05-12T03:49:49.861Z,6.20
2023-05-12T03:52:17.506Z,6.13
2023-05-12T03:54:45.866Z,6.00
2023-05-12T03:57:14.864Z,5.80
2023-05-12T03:59:42.475Z,5.32
2023-05-12T04:02:12.326Z,4.32
2023-05-12T04:04:40.534Z,4.78
2023-05-12T04:07:08.040Z,4.72
2023-05-12T04:09:35.567Z,3.97
2023-05-12T04:12:04.517Z,3.58
2023-05-12T04:14:42.198Z,4.00
2023-05-12T04:17:10.638Z,4.25
2023-05-12T04:19:38.578Z,3.90
2023-05-12T04:22:06.487Z,3.53
2023-05-12T04:24:34.202Z,3.58
2023-05-12T04:27:01.785Z,3.75
2023-05-12T04:29:29.368Z,3.85
2023-05-12T04:31:57.228Z,3.72
2023-05-12T04:34:25.012Z,3.72
2023-05-12T04:36:52.998Z,3.95
2023-05-12T04:39:21.292Z,4.38
2023-05-12T04:41:49.292Z,3.60
2023-05-12T04:44:16.985Z,4.43
2023-05-12T04:46:45.009Z,4.57
2023-05-12T04:49:12.576Z,3.88
2023-05-12T04:51:42.296Z,4.03
2023-05-12T04:54:10.763Z,3.70
2023-05-12T04:56:38.998Z,3.28
2023-05-12T04:59:07.848Z,3.53
2023-05-12T05:01:35.719Z,3.10
2023-05-12T05:04:03.575Z,2.80
2023-05-12T05:06:31.678Z,2.60
2023-05-12T05:09:00.344Z,2.70
2023-05-12T05:11:28.164Z,2.75
2023-05-12T05:13:55.678Z,2.42
2023-05-12T05:16:24.305Z,2.58
2023-05-12T05:18:52.546Z,2.55
2023-05-12T05:21:20.187Z,2.53
2023-05-12T05:23:47.790Z,2.90
2023-05-12T05:26:16.008Z,2.60
2023-05-12T05:28:44.135Z,2.80
2023-05-12T05:31:18.434Z,3.17
2023-05-12T05:33:46.033Z,2.67
2023-05-12T05:36:13.846Z,3.78
2023-05-12T05:38:41.461Z,4.00
2023-05-12T05:41:09.733Z,3.80
2023-05-12T05:43:37.512Z,4.53
2023-05-12T05:46:05.295Z,4.05
2023-05-12T05:48:32.940Z,3.95
2023-05-12T05:51:00.906Z,4.50
2023-05-12T05:53:29.129Z,4.32
2023-05-12T05:55:56.761Z,3.85
2023-05-12T05:58:24.537Z,3.92
2023-05-12T06:00:52.164Z,3.97
2023-05-12T06:03:19.883Z,3.28
2023-05-12T06:05:47.870Z,3.40
2023-05-12T06:08:15.497Z,3.63
2023-05-12T06:10:43.033Z,3.67
2023-05-12T06:13:11.069Z,3.70
2023-05-12T06:15:39.099Z,4.13
2023-05-12T06:18:06.782Z,3.88
2023-05-12T06:20:34.388Z,3.22
2023-05-12T06:23:02.497Z,2.85
2023-05-12T06:25:30.247Z,2.60
2023-05-12T06:27:57.932Z,2.35
2023-05-12T06:30:25.584Z,3.00
2023-05-12T06:32:56.091Z,3.03
2023-05-12T06:35:23.706Z,3.17
2023-05-12T06:37:51.579Z,2.28
2023-05-12T06:40:19.195Z,2.20
2023-05-12T06:42:47.714Z,2.47
2023-05-12T06:45:21.260Z,2.30
2023-05-12T06:47:49.304Z,2.70
2023-05-12T06:50:17.115Z,3.00
2023-05-12T06:52:45.136Z,3.20
2023-05-12T06:55:12.805Z,3.17
2023-05-12T06:57:41.364Z,3.42
2023-05-12T07:00:09.709Z,2.78
2023-05-12T07:02:37.316Z,2.42
2023-05-12T07:05:05.049Z,2.10
2023-05-12T07:07:32.595Z,2.25
2023-05-12T07:10:02.417Z,2.42
2023-05-12T07:12:30.162Z,2.17
2023-05-12T07:14:57.716Z,2.30
2023-05-12T07:17:25.865Z,2.38
2023-05-12T07:19:53.449Z,2.15
2023-05-12T07:22:21.084Z,2.70
2023-05-12T07:24:48.667Z,2.60
2023-05-12T07:27:16.311Z,2.70
2023-05-12T07:29:43.892Z,2.33
2023-05-12T07:32:11.674Z,2.45
2023-05-12T07:34:39.197Z,2.25
2023-05-12T07:37:06.715Z,2.08
2023-05-12T07:39:34.347Z,2.42
2023-05-12T07:42:07.086Z,2.58
2023-05-12T07:44:37.507Z,1.92
2023-05-12T07:47:08.096Z,2.35
2023-05-12T07:49:35.824Z,2.30
2023-05-12T07:52:03.578Z,2.47
2023-05-12T07:54:32.542Z,2.20
2023-05-12T07:57:00.495Z,2.10
2023-05-12T07:59:28.095Z,2.70
2023-05-12T08:01:55.745Z,2.65
2023-05-12T08:04:23.489Z,2.83
2023-05-12T08:06:51.213Z,2.72
2023-05-12T08:09:18.782Z,3.03
2023-05-12T08:11:48.116Z,3.00
2023-05-12T08:14:17.570Z,2.75
2023-05-12T08:16:46.380Z,2.08
2023-05-12T08:19:14.140Z,2.10
2023-05-12T08:21:41.816Z,2.17
2023-05-12T08:24:09.459Z,2.10
2023-05-12T08:26:36.932Z,1.90
2023-05-12T08:29:06.031Z,1.90
2023-05-12T08:31:33.815Z,2.00
2023-05-12T08:34:09.775Z,2.30
2023-05-12T08:36:39.638Z,2.17
2023-05-12T08:39:10.086Z,2.38
2023-05-12T08:41:43.351Z,2.00
2023-05-12T08:44:11.934Z,2.20
2023-05-12T08:46:39.551Z,2.60
2023-05-12T08:49:07.242Z,2.30
2023-05-12T08:51:37.526Z,1.88
2023-05-12T08:54:05.475Z,1.83
2023-05-12T08:59:05.348Z,0.90
2023-05-12T09:01:36.862Z,1.77
2023-05-12T09:04:07.583Z,1.00
2023-05-12T09:06:35.526Z,0.77
2023-05-12T09:09:04.037Z,0.73
2023-05-12T09:11:31.567Z,0.65
2023-05-12T09:14:00.548Z,0.75
2023-05-12T09:16:30.266Z,0.68
2023-05-12T09:18:59.117Z,0.52
2023-05-12T09:21:27.036Z,0.90
2023-05-12T09:23:54.893Z,1.17
2023-05-12T09:26:25.294Z,1.23
2023-05-12T09:28:53.698Z,1.20
2023-05-12T09:31:22.565Z,1.40
2023-05-12T09:33:50.983Z,1.05
2023-05-12T09:36:25.341Z,0.70
2023-05-12T09:38:59.636Z,1.25
2023-05-12T09:41:27.261Z,1.60
2023-05-12T09:43:54.798Z,0.80
2023-05-12T09:46:22.383Z,0.82
2023-05-12T09:48:49.925Z,1.38
2023-05-12T09:51:18.549Z,0.80
2023-05-12T09:53:46.944Z,0.93
2023-05-12T09:56:15.114Z,0.80
2023-05-12T09:58:44.413Z,2.10
2023-05-12T10:01:22.740Z,0.70
2023-05-12T10:03:58.214Z,0.40
2023-05-12T10:06:28.217Z,0.60
2023-05-12T10:09:03.744Z,0.60
2023-05-12T10:11:31.815Z,0.50
2023-05-12T10:14:01.182Z,0.50
2023-05-12T10:16:29.242Z,0.50
2023-05-12T10:18:56.903Z,0.50
2023-05-12T10:21:26.157Z,0.57
2023-05-12T10:23:54.781Z,0.50
2023-05-12T10:26:23.277Z,0.60
2023-05-12T10:28:51.282Z,0.40
2023-05-12T10:31:19.902Z,0.30
2023-05-12T10:33:57.844Z,0.28
2023-05-12T10:36:53.984Z,0.30
2023-05-12T10:39:28.169Z,0.30
2023-05-12T10:42:01.802Z,0.40
2023-05-12T10:44:29.524Z,0.30
2023-05-12T10:47:00.224Z,0.35
2023-05-12T10:49:40.632Z,0.30
2023-05-12T10:52:08.425Z,0.30
2023-05-12T10:54:44.740Z,0.38
2023-05-12T10:57:16.024Z,0.40
2023-05-12T10:59:53.588Z,0.45
2023-05-12T11:02:26.530Z,0.22
2023-05-12T11:04:59.762Z,0.20
2023-05-12T11:07:31.193Z,0.30
2023-05-12T11:10:05.552Z,0.30
2023-05-12T11:12:35.764Z,0.50
2023-05-12T11:15:04.070Z,0.40
2023-05-12T11:17:32.337Z,0.43
2023-05-12T11:20:01.372Z,0.40
2023-05-12T11:22:29.640Z,0.38
2023-05-12T11:24:57.422Z,0.40
2023-05-12T11:27:27.294Z,0.20
2023-05-12T11:30:04.064Z,0.30
2023-05-12T11:32:31.838Z,0.40
2023-05-12T11:35:12.979Z,0.30
2023-05-12T11:37:41.510Z,0.28
2023-05-12T11:40:21.970Z,0.55
2023-05-12T11:42:52.170Z,0.52
2023-05-12T11:45:21.717Z,0.40
2023-05-12T11:47:49.721Z,0.70
2023-05-12T11:50:21.943Z,0.50
2023-05-12T11:52:49.724Z,0.65
2023-05-12T11:55:22.388Z,0.50
2023-05-12T11:57:57.624Z,0.40
2023-05-12T12:00:32.684Z,0.60
2023-05-12T12:03:11.342Z,0.70
2023-05-12T12:05:42.381Z,0.63
2023-05-12T12:08:17.044Z,0.60
2023-05-12T12:10:47.729Z,0.60
2023-05-12T12:13:22.230Z,0.55
2023-05-12T12:15:50.422Z,0.40
2023-05-12T12:18:18.897Z,0.40
2023-05-12T12:20:47.687Z,0.47
2023-05-12T12:23:15.426Z,0.50
2023-05-12T12:25:43.605Z,0.20
2023-05-12T12:28:11.250Z,0.38
2023-05-12T12:30:38.892Z,0.50
2023-05-12T12:33:06.507Z,0.50
2023-05-12T12:35:34.039Z,0.40
2023-05-12T12:38:01.537Z,0.30
2023-05-12T12:40:29.124Z,0.40
2023-05-12T12:42:56.952Z,0.60
2023-05-12T12:45:24.905Z,0.17
2023-05-12T12:47:54.773Z,0.30
2023-05-12T12:50:24.449Z,0.40
2023-05-12T12:52:52.849Z,0.30
2023-05-12T12:55:20.932Z,0.20
2023-05-12T12:57:48.671Z,0.30
2023-05-12T13:00:17.419Z,0.30
2023-05-12T13:02:45.283Z,0.40
2023-05-12T13:05:12.836Z,0.28
2023-05-12T13:07:40.442Z,0.30
2023-05-12T13:10:08.337Z,0.25
2023-05-12T13:12:38.575Z,0.20
2023-05-12T13:15:07.250Z,0.38
2023-05-12T13:17:34.853Z,0.30
2023-05-12T13:20:03.840Z,0.20
2023-05-12T13:22:31.684Z,0.20
2023-05-12T13:24:59.301Z,0.30
2023-05-12T13:27:26.911Z,0.30
2023-05-12T13:29:54.420Z,0.38
2023-05-12T13:32:22.167Z,0.40
2023-05-12T13:34:49.697Z,0.32
2023-05-12T13:37:17.221Z,0.40
2023-05-12T13:39:44.809Z,0.47
2023-05-12T13:42:12.329Z,0.40
2023-05-12T13:44:39.894Z,0.50
2023-05-12T13:47:07.932Z,0.50
2023-05-12T13:49:36.252Z,0.60
2023-05-12T13:52:03.930Z,0.60
2023-05-12T13:54:32.459Z,0.70
2023-05-12T13:57:00.778Z,0.60
2023-05-12T13:59:28.334Z,0.60
2023-05-12T14:01:55.823Z,0.60
2023-05-12T14:04:23.509Z,0.85
2023-05-12T14:06:51.201Z,0.70
2023-05-12T14:09:19.306Z,0.90
2023-05-12T14:11:46.916Z,0.98
2023-05-12T14:14:14.421Z,0.98
2023-05-12T14:16:42.051Z,0.90
2023-05-12T14:19:09.739Z,0.82
2023-05-12T14:21:37.549Z,0.90
2023-05-12T14:24:05.323Z,0.90
2023-05-12T14:26:32.846Z,1.23
2023-05-12T14:29:00.677Z,1.05
2023-05-12T14:31:28.407Z,1.00
2023-05-12T14:33:56.256Z,1.00
2023-05-12T14:36:23.811Z,1.15
2023-05-12T14:38:51.331Z,0.95
2023-05-12T14:41:18.952Z,0.90
2023-05-12T14:43:46.772Z,1.25
2023-05-12T14:46:14.400Z,1.00
2023-05-12T14:48:42.000Z,1.00
2023-05-12T14:51:09.541Z,1.08
2023-05-12T14:53:37.200Z,1.20
2023-05-12T14:56:04.809Z,1.33
2023-05-12T14:58:32.423Z,1.60
2023-05-12T15:01:01.895Z,1.50
2023-05-12T15:03:29.672Z,1.30
2023-05-12T15:06:06.263Z,1.38
2023-05-12T15:08:34.822Z,1.30
2023-05-12T15:11:02.375Z,1.10
2023-05-12T15:13:29.882Z,1.10
2023-05-12T15:15:57.558Z,1.00
2023-05-12T15:18:25.299Z,0.98
2023-05-12T15:20:52.841Z,1.10
2023-05-12T15:23:20.648Z,1.10
2023-05-12T15:25:48.223Z,1.05
2023-05-12T15:28:15.845Z,1.35
2023-05-12T15:30:44.625Z,0.98
2023-05-12T15:33:12.206Z,1.10
2023-05-12T15:35:40.667Z,1.00
2023-05-12T15:38:08.417Z,1.00
2023-05-12T15:40:36.432Z,1.10
2023-05-12T15:43:04.908Z,1.10
2023-05-12T15:45:32.659Z,1.23
2023-05-12T15:48:00.350Z,1.20
2023-05-12T15:50:28.042Z,1.10
2023-05-12T15:52:55.757Z,1.08
2023-05-12T15:55:23.529Z,1.40
2023-05-12T15:57:52.247Z,1.15
2023-05-12T16:00:21.142Z,1.50
2023-05-12T16:02:49.938Z,1.40
2023-05-12T16:05:17.972Z,1.40
2023-05-12T16:07:45.762Z,1.20
2023-05-12T16:10:13.315Z,1.13
2023-05-12T16:12:40.914Z,1.10
2023-05-12T16:15:08.798Z,1.30
2023-05-12T16:17:36.448Z,0.93
2023-05-12T16:20:04.477Z,1.05
2023-05-12T16:22:32.045Z,1.20
2023-05-12T16:24:59.648Z,1.08
2023-05-12T16:27:27.269Z,1.10
2023-05-12T16:29:55.431Z,1.35
2023-05-12T16:32:23.426Z,1.10
2023-05-12T16:34:51.043Z,1.17
2023-05-12T16:37:18.641Z,1.00
2023-05-12T16:39:46.976Z,1.20
2023-05-12T16:42:16.002Z,1.20
2023-05-12T16:44:43.585Z,1.10
2023-05-12T16:47:11.301Z,1.08
2023-05-12T16:49:39.648Z,1.15
2023-05-12T16:52:09.478Z,1.30
2023-05-12T16:54:38.731Z,0.80
2023-05-12T16:57:06.953Z,1.15
2023-05-12T16:59:34.542Z,1.17
2023-05-12T17:02:02.748Z,1.00
2023-05-12T17:04:30.922Z,1.23
2023-05-12T17:06:59.090Z,1.48
2023-05-12T17:09:28.456Z,1.20
2023-05-12T17:11:56.793Z,1.08
2023-05-12T17:14:24.986Z,1.17
2023-05-12T17:16:52.951Z,1.33
2023-05-12T17:19:22.371Z,1.45
2023-05-12T17:21:50.307Z,1.20
2023-05-12T17:24:17.823Z,1.27
2023-05-12T17:26:45.428Z,1.25
2023-05-12T17:29:13.212Z,1.40
2023-05-12T17:31:40.795Z,1.58
2023-05-12T17:34:08.356Z,1.10
2023-05-12T17:36:35.971Z,1.23
2023-05-12T17:39:03.807Z,1.23
2023-05-12T17:41:31.293Z,1.38
2023-05-12T17:43:58.879Z,1.45
2023-05-12T17:46:26.463Z,1.40
2023-05-12T17:48:54.019Z,1.20
2023-05-12T17:51:21.777Z,1.55
2023-05-12T17:53:49.300Z,1.95
2023-05-12T17:56:19.217Z,1.30
2023-05-12T17:58:48.027Z,1.42
2023-05-12T18:01:15.643Z,1.33
2023-05-12T18:03:43.829Z,1.33
2023-05-12T18:06:13.090Z,1.65
2023-05-12T18:08:40.918Z,1.50
2023-05-12T18:11:08.515Z,1.70
2023-05-12T18:13:36.655Z,1.67
2023-05-12T18:16:05.298Z,1.58
2023-05-12T18:18:33.078Z,1.70
2023-05-12T18:21:01.554Z,1.52
2023-05-12T18:23:29.158Z,1.33
2023-05-12T18:25:57.010Z,1.45
2023-05-12T18:28:24.604Z,1.75
2023-05-12T18:30:53.282Z,1.40
2023-05-12T18:33:21.313Z,1.63
2023-05-12T18:35:48.898Z,1.60
2023-05-12T18:38:16.569Z,1.70
2023-05-12T18:40:44.708Z,2.13
2023-05-12T18:43:12.437Z,1.80
2023-05-12T18:45:39.944Z,2.03
2023-05-12T18:48:08.186Z,2.05
2023-05-12T18:50:35.956Z,1.90
2023-05-12T18:53:03.491Z,1.98
2023-05-12T18:55:31.431Z,2.25
2023-05-12T18:57:59.066Z,1.60
2023-05-12T19:00:31.620Z,2.17
2023-05-12T19:02:59.399Z,1.98
2023-05-12T19:05:27.295Z,2.40
2023-05-12T19:07:55.734Z,2.30
2023-05-12T19:10:23.709Z,2.28
2023-05-12T19:12:51.383Z,2.78
2023-05-12T19:15:19.166Z,2.72
2023-05-12T19:17:47.077Z,2.33
2023-05-12T19:20:15.443Z,2.95
2023-05-12T19:22:43.985Z,3.05
2023-05-12T19:25:11.591Z,2.95
2023-05-12T19:27:39.156Z,2.65
2023-05-12T19:30:06.915Z,2.70
2023-05-12T19:32:34.500Z,2.80
2023-05-12T19:35:02.377Z,2.58
2023-05-12T19:37:29.906Z,2.25
2023-05-12T19:39:58.210Z,2.67
2023-05-12T19:42:25.960Z,3.60
2023-05-12T19:44:53.488Z,3.22
2023-05-12T19:47:25.197Z,3.28
2023-05-12T19:49:53.936Z,3.00
2023-05-12T19:52:24.772Z,3.08
2023-05-12T19:54:53.019Z,2.47
2023-05-12T19:57:20.952Z,2.33
2023-05-12T19:59:49.757Z,1.88
2023-05-12T20:02:17.559Z,1.75
2023-05-12T20:04:45.266Z,1.40
2023-05-12T20:07:12.985Z,1.48
2023-05-12T20:09:40.662Z,1.20
2023-05-12T20:12:08.411Z,1.25
2023-05-12T20:14:36.387Z,0.93
2023-05-12T20:17:05.791Z,0.80
2023-05-12T20:19:33.967Z,0.80
2023-05-12T20:22:01.550Z,0.60
2023-05-12T20:24:29.269Z,0.63
2023-05-12T20:26:56.929Z,0.77
2023-05-12T20:29:25.971Z,1.00
2023-05-12T20:31:53.779Z,0.70
2023-05-12T20:34:21.369Z,0.82
2023-05-12T20:36:49.204Z,1.05
2023-05-12T20:39:16.835Z,0.90
2023-05-12T20:41:44.632Z,1.00
2023-05-12T20:44:12.190Z,0.85
2023-05-12T20:46:40.272Z,1.00
2023-05-12T20:49:07.994Z,0.90
2023-05-12T20:51:35.657Z,1.02
2023-05-12T20:54:03.276Z,0.80
2023-05-12T20:56:31.029Z,0.85
2023-05-12T20:58:58.820Z,1.05
2023-05-12T21:01:26.531Z,0.98
2023-05-12T21:03:55.539Z,0.82
2023-05-12T21:06:26.017Z,0.88
2023-05-12T21:08:54.044Z,0.70
2023-05-12T21:11:22.381Z,0.73
2023-05-12T21:13:50.123Z,0.75
2023-05-12T21:16:17.800Z,0.95
2023-05-12T21:18:45.906Z,0.90
2023-05-12T21:21:13.742Z,0.90
2023-05-12T21:23:41.454Z,0.82
2023-05-12T21:26:10.544Z,1.00
2023-05-12T21:28:38.192Z,1.40
2023-05-12T21:31:05.824Z,1.50
2023-05-12T21:33:33.966Z,1.65
2023-05-12T21:36:02.643Z,2.00
2023-05-12T21:38:32.787Z,2.03
2023-05-12T21:41:00.721Z,1.98
2023-05-12T21:43:29.026Z,1.90
2023-05-12T21:45:59.841Z,1.70
2023-05-12T21:48:28.027Z,1.83
2023-05-12T21:51:00.026Z,1.65
2023-05-12T21:53:27.867Z,1.85
2023-05-12T21:55:56.435Z,1.65
2023-05-12T21:58:24.065Z,1.80
2023-05-12T22:00:52.383Z,1.67
2023-05-12T22:03:21.713Z,2.00
2023-05-12T22:05:50.015Z,1.88
2023-05-12T22:08:18.630Z,1.80
2023-05-12T22:10:46.797Z,2.00
2023-05-12T22:13:14.649Z,2.33
2023-05-12T22:15:42.489Z,2.30
2023-05-12T22:18:10.171Z,2.40
2023-05-12T22:20:37.993Z,2.40
2023-05-12T22:23:06.063Z,2.58
2023-05-12T22:25:34.124Z,2.67
2023-05-12T22:28:01.961Z,2.92
2023-05-12T22:30:29.590Z,3.40
2023-05-12T22:32:57.313Z,2.88
2023-05-12T22:35:25.024Z,3.10
2023-05-12T22:37:53.381Z,2.97
2023-05-12T22:40:21.540Z,3.00
2023-05-12T22:42:49.260Z,3.28
2023-05-12T22:45:16.856Z,3.20
2023-05-12T22:47:44.635Z,3.17
2023-05-12T22:50:12.279Z,3.92
2023-05-12T22:52:39.768Z,3.17
2023-05-12T22:55:07.549Z,2.80
2023-05-12T22:57:35.178Z,2.47
2023-05-12T23:00:03.790Z,2.90
2023-05-12T23:02:31.370Z,2.78
2023-05-12T23:04:58.908Z,2.80
2023-05-12T23:07:26.551Z,3.00
2023-05-12T23:09:54.074Z,2.95
2023-05-12T23:12:21.747Z,3.60
2023-05-12T23:14:49.319Z,4.05
2023-05-12T23:17:16.837Z,3.28
2023-05-12T23:19:44.370Z,3.60
2023-05-12T23:22:11.946Z,3.63
2023-05-12T23:24:39.458Z,3.80
2023-05-12T23:27:07.191Z,4.10
2023-05-12T23:29:34.761Z,4.50
2023-05-12T23:32:02.642Z,5.03
2023-05-12T23:34:31.848Z,4.15
2023-05-12T23:36:59.393Z,4.20
2023-05-12T23:39:27.171Z,4.57
2023-05-12T23:41:54.688Z,4.85
2023-05-12T23:44:22.214Z,4.55
2023-05-12T23:46:49.776Z,4.40
2023-05-12T23:49:17.279Z,4.45
2023-05-12T23:51:45.199Z,4.68
2023-05-12T23:54:12.735Z,5.32
2023-05-12T23:56:40.278Z,5.22
2023-05-12T23:59:08.860Z,5.68
